createdAt,value
2019-05-01T00:00:16.037Z,12.28
2019-05-01T00:03:05.187Z,13.53
2019-05-01T00:05:52.214Z,13.55
2019-05-01T00:08:37.201Z,14.80
2019-05-01T00:11:22.250Z,17.50
2019-05-01T00:14:07.658Z,11.43
2019-05-01T00:16:52.749Z,13.05
2019-05-01T00:19:37.425Z,12.28
2019-05-01T00:22:22.222Z,14.20
2019-05-01T00:25:07.072Z,12.35
2019-05-01T00:27:52.110Z,13.22
2019-05-01T00:30:37.186Z,11.03
2019-05-01T00:33:22.344Z,14.25
2019-05-01T00:36:07.413Z,12.47
2019-05-01T00:38:52.271Z,12.60
2019-05-01T00:41:37.101Z,12.60
2019-05-01T00:44:21.899Z,12.40
2019-05-01T00:47:06.652Z,12.80
2019-05-01T00:49:51.486Z,14.38
2019-05-01T00:52:36.179Z,15.88
2019-05-01T00:55:38.116Z,11.95
2019-05-01T00:58:33.701Z,13.10
2019-05-01T01:01:37.318Z,13.13
2019-05-01T01:04:22.629Z,17.55
2019-05-01T01:07:07.473Z,14.68
2019-05-01T01:09:52.087Z,14.28
2019-05-01T01:12:36.921Z,14.87
2019-05-01T01:15:21.597Z,12.45
2019-05-01T01:18:06.344Z,16.23
2019-05-01T01:20:51.218Z,14.20
2019-05-01T01:23:36.510Z,14.20
2019-05-01T01:26:21.421Z,15.23
2019-05-01T01:29:06.802Z,13.58
2019-05-01T01:31:52.013Z,12.75
2019-05-01T01:34:36.768Z,15.38
2019-05-01T01:37:21.466Z,12.58
2019-05-01T01:40:06.831Z,14.50
2019-05-01T01:42:53.701Z,12.53
2019-05-01T01:45:43.260Z,13.95
2019-05-01T01:48:47.971Z,13.70
2019-05-01T01:51:32.933Z,13.85
2019-05-01T01:54:18.505Z,12.75
2019-05-01T01:57:17.383Z,14.93
2019-05-01T02:00:06.578Z,15.15
2019-05-01T02:02:56.483Z,15.00
2019-05-01T02:05:43.789Z,13.28
2019-05-01T02:08:28.821Z,13.65
2019-05-01T02:11:27.321Z,16.65
2019-05-01T02:14:12.305Z,14.55
2019-05-01T02:16:57.220Z,18.37
2019-05-01T02:19:42.630Z,13.35
2019-05-01T02:22:27.437Z,13.48
2019-05-01T02:25:13.469Z,12.20
2019-05-01T02:28:17.218Z,12.65
2019-05-01T02:31:07.579Z,11.57
2019-05-01T02:33:53.495Z,12.63
2019-05-01T02:36:39.624Z,14.80
2019-05-01T02:39:25.987Z,15.43
2019-05-01T02:42:13.465Z,15.00
2019-05-01T02:45:12.516Z,13.98
2019-05-01T02:47:59.378Z,15.78
2019-05-01T02:50:48.148Z,11.65
2019-05-01T02:53:36.123Z,14.87
2019-05-01T02:56:24.482Z,14.83
2019-05-01T02:59:09.971Z,14.95
2019-05-01T03:01:54.819Z,17.57
2019-05-01T03:04:40.711Z,14.98
2019-05-01T03:07:29.426Z,15.28
2019-05-01T03:10:20.776Z,13.40
2019-05-01T03:13:05.766Z,14.58
2019-05-01T03:18:53.697Z,14.73
2019-05-01T03:21:43.393Z,13.00
2019-05-01T03:24:29.161Z,13.62
2019-05-01T03:27:14.730Z,13.95
2019-05-01T03:29:59.791Z,14.78
2019-05-01T03:32:45.089Z,11.80
2019-05-01T03:35:30.451Z,12.70
2019-05-01T03:38:16.026Z,16.82
2019-05-01T03:41:02.067Z,14.98
2019-05-01T03:43:47.159Z,14.40
2019-05-01T03:46:32.410Z,15.45
2019-05-01T03:49:17.457Z,15.98
2019-05-01T03:52:02.209Z,14.60
2019-05-01T03:54:47.218Z,16.80
2019-05-01T03:57:32.479Z,13.62
2019-05-01T04:00:20.707Z,16.30
2019-05-01T04:03:13.453Z,15.50
2019-05-01T04:05:58.990Z,15.60
2019-05-01T04:08:44.102Z,14.28
2019-05-01T04:11:29.063Z,15.83
2019-05-01T04:14:14.236Z,13.70
2019-05-01T04:17:03.553Z,14.40
2019-05-01T04:19:49.700Z,15.35
2019-05-01T04:22:34.933Z,13.85
2019-05-01T04:25:20.774Z,12.43
2019-05-01T04:28:24.335Z,15.68
2019-05-01T04:31:11.631Z,15.88
2019-05-01T04:34:08.077Z,14.53
2019-05-01T04:36:54.854Z,18.48
2019-05-01T04:39:40.151Z,13.72
2019-05-01T04:42:25.667Z,12.95
2019-05-01T04:45:10.810Z,13.35
2019-05-01T04:47:56.105Z,16.23
2019-05-01T04:50:41.397Z,14.93
2019-05-01T04:53:26.795Z,16.62
2019-05-01T04:56:12.154Z,14.40
2019-05-01T04:58:57.867Z,14.03
2019-05-01T05:01:51.438Z,13.50
2019-05-01T05:04:37.032Z,16.85
2019-05-01T05:07:43.879Z,14.20
2019-05-01T05:10:32.596Z,15.83
2019-05-01T05:13:19.468Z,15.23
2019-05-01T05:16:10.085Z,14.85
2019-05-01T05:18:55.487Z,15.25
2019-05-01T05:21:40.653Z,15.55
2019-05-01T05:24:25.746Z,27.93
2019-05-01T05:27:11.809Z,22.67
2019-05-01T05:29:56.648Z,16.70
2019-05-01T05:32:42.350Z,29.25
2019-05-01T05:35:30.464Z,18.23
2019-05-01T05:38:28.053Z,15.08
2019-05-01T05:41:13.593Z,19.05
2019-05-01T05:43:58.694Z,20.40
2019-05-01T05:46:43.452Z,22.45
2019-05-01T05:49:29.245Z,14.47
2019-05-01T05:52:17.406Z,16.80
2019-05-01T05:55:11.352Z,17.82
2019-05-01T05:57:59.340Z,15.45
2019-05-01T06:00:54.869Z,16.00
2019-05-01T06:04:03.562Z,15.32
2019-05-01T06:07:01.660Z,15.90
2019-05-01T06:09:51.567Z,14.25
2019-05-01T06:12:48.275Z,17.05
2019-05-01T06:15:42.688Z,15.93
2019-05-01T06:18:30.069Z,19.57
2019-05-01T06:21:17.173Z,16.52
2019-05-01T06:24:06.695Z,16.67
2019-05-01T06:26:52.453Z,17.10
2019-05-01T06:29:37.908Z,20.50
2019-05-01T06:32:23.238Z,16.32
2019-05-01T06:35:08.512Z,20.27
2019-05-01T06:38:09.690Z,15.83
2019-05-01T06:40:58.223Z,16.48
2019-05-01T06:43:47.890Z,17.10
2019-05-01T06:46:38.178Z,16.00
2019-05-01T06:49:29.281Z,15.28
2019-05-01T06:52:19.780Z,17.05
2019-05-01T06:55:05.678Z,16.70
2019-05-01T06:57:50.673Z,16.25
2019-05-01T07:00:39.186Z,15.80
2019-05-01T07:03:25.009Z,15.00
2019-05-01T07:06:14.491Z,16.17
2019-05-01T07:08:58.091Z,15.98
2019-05-01T07:11:47.576Z,16.02
2019-05-01T07:14:30.113Z,17.50
2019-05-01T07:17:15.335Z,17.30
2019-05-01T07:20:18.572Z,17.30
2019-05-01T07:23:04.300Z,14.85
2019-05-01T07:25:49.420Z,16.48
2019-05-01T07:28:36.329Z,16.62
2019-05-01T07:31:21.472Z,16.37
2019-05-01T07:34:16.284Z,18.10
2019-05-01T07:36:53.605Z,17.17
2019-05-01T07:39:39.061Z,16.90
2019-05-01T07:42:26.357Z,16.45
2019-05-01T07:45:13.877Z,15.85
2019-05-01T07:48:00.894Z,18.10
2019-05-01T07:50:45.980Z,18.20
2019-05-01T07:53:32.065Z,21.62
2019-05-01T07:56:17.352Z,19.80
2019-05-01T07:59:02.747Z,18.98
2019-05-01T08:01:54.477Z,18.67
2019-05-01T08:04:37.465Z,25.62
2019-05-01T08:07:22.520Z,22.65
2019-05-01T08:10:07.977Z,23.27
2019-05-01T08:12:55.449Z,23.55
2019-05-01T08:15:39.933Z,22.27
2019-05-01T08:18:28.000Z,20.00
2019-05-01T08:21:26.202Z,25.95
2019-05-01T08:24:11.760Z,22.20
2019-05-01T08:26:56.872Z,19.15
2019-05-01T08:29:55.675Z,23.55
2019-05-01T08:32:48.253Z,30.90
2019-05-01T08:35:36.502Z,24.72
2019-05-01T08:38:20.470Z,26.68
2019-05-01T08:41:06.732Z,23.75
2019-05-01T08:43:54.197Z,25.80
2019-05-01T08:46:40.736Z,29.70
2019-05-01T08:49:36.478Z,24.20
2019-05-01T08:52:21.561Z,21.27
2019-05-01T08:55:09.212Z,15.15
2019-05-01T08:57:53.721Z,21.12
2019-05-01T09:00:41.137Z,17.92
2019-05-01T09:03:25.721Z,21.70
2019-05-01T09:06:10.458Z,21.02
2019-05-01T09:08:55.375Z,18.25
2019-05-01T09:11:40.086Z,21.45
2019-05-01T09:14:24.988Z,16.90
2019-05-01T09:17:09.997Z,20.88
2019-05-01T09:19:54.732Z,21.25
2019-05-01T09:22:39.933Z,20.37
2019-05-01T09:25:26.785Z,24.47
2019-05-01T09:28:25.509Z,22.17
2019-05-01T09:31:12.466Z,21.37
2019-05-01T09:33:57.418Z,25.43
2019-05-01T09:36:42.854Z,23.00
2019-05-01T09:39:28.805Z,21.80
2019-05-01T09:42:22.870Z,22.58
2019-05-01T09:45:00.765Z,22.65
2019-05-01T09:47:45.649Z,17.60
2019-05-01T09:50:32.680Z,21.37
2019-05-01T09:53:23.479Z,20.43
2019-05-01T09:56:13.027Z,18.40
2019-05-01T09:58:58.301Z,17.60
2019-05-01T10:01:43.834Z,18.12
2019-05-01T10:04:30.166Z,18.90
2019-05-01T10:07:15.547Z,15.28
2019-05-01T10:10:00.586Z,18.23
2019-05-01T10:12:47.094Z,21.27
2019-05-01T10:15:32.440Z,17.15
2019-05-01T10:18:17.205Z,17.07
2019-05-01T10:21:01.988Z,16.52
2019-05-01T10:23:47.025Z,17.87
2019-05-01T10:26:35.474Z,17.92
2019-05-01T10:29:25.849Z,17.23
2019-05-01T10:32:17.028Z,14.95
2019-05-01T10:35:02.846Z,15.90
2019-05-01T10:37:47.772Z,14.98
2019-05-01T10:40:34.356Z,15.28
2019-05-01T10:43:19.594Z,14.98
2019-05-01T10:46:04.465Z,16.35
2019-05-01T10:48:49.766Z,10.72
2019-05-01T10:51:34.687Z,12.75
2019-05-01T10:54:19.508Z,11.35
2019-05-01T10:57:04.665Z,10.05
2019-05-01T10:59:49.854Z,10.63
2019-05-01T11:02:34.615Z,12.47
2019-05-01T11:05:19.386Z,10.58
2019-05-01T11:08:04.373Z,11.12
2019-05-01T11:10:49.487Z,11.90
2019-05-01T11:13:34.926Z,12.53
2019-05-01T11:16:19.813Z,12.28
2019-05-01T11:19:05.191Z,13.95
2019-05-01T11:21:50.045Z,10.65
2019-05-01T11:24:35.328Z,14.55
2019-05-01T11:27:20.432Z,8.90
2019-05-01T11:30:06.389Z,10.88
2019-05-01T11:32:58.966Z,11.63
2019-05-01T11:36:09.604Z,10.82
2019-05-01T11:38:53.347Z,11.83
2019-05-01T11:41:42.714Z,11.30
2019-05-01T11:44:27.907Z,10.88
2019-05-01T11:47:12.757Z,10.48
2019-05-01T11:49:57.738Z,9.08
2019-05-01T11:52:42.389Z,8.95
2019-05-01T11:55:27.290Z,10.30
2019-05-01T11:58:11.989Z,9.25
2019-05-01T12:00:58.778Z,10.58
2019-05-01T12:03:43.699Z,10.23
2019-05-01T12:06:28.657Z,10.98
2019-05-01T12:09:13.768Z,11.40
2019-05-01T12:12:01.461Z,12.40
2019-05-01T12:14:47.045Z,9.63
2019-05-01T12:17:34.149Z,9.58
2019-05-01T12:20:20.154Z,9.53
2019-05-01T12:23:04.965Z,8.95
2019-05-01T12:25:50.109Z,9.75
2019-05-01T12:28:35.109Z,10.78
2019-05-01T12:31:19.769Z,13.95
2019-05-01T12:34:04.889Z,13.00
2019-05-01T12:36:51.472Z,9.38
2019-05-01T12:39:36.502Z,10.28
2019-05-01T12:42:23.353Z,9.65
2019-05-01T12:45:10.317Z,7.97
2019-05-01T12:47:56.993Z,7.87
2019-05-01T12:50:42.181Z,8.40
2019-05-01T12:53:29.116Z,10.13
2019-05-01T12:56:16.073Z,10.28
2019-05-01T12:59:01.088Z,9.28
2019-05-01T13:01:46.070Z,9.90
2019-05-01T13:04:30.837Z,10.23
2019-05-01T13:07:15.916Z,7.58
2019-05-01T13:10:01.282Z,9.58
2019-05-01T13:12:46.331Z,8.10
2019-05-01T13:15:31.121Z,10.90
2019-05-01T13:18:15.857Z,13.90
2019-05-01T13:21:00.741Z,8.05
2019-05-01T13:23:45.616Z,8.93
2019-05-01T13:26:32.333Z,11.95
2019-05-01T13:29:22.121Z,7.15
2019-05-01T13:32:21.379Z,9.05
2019-05-01T13:35:06.969Z,7.50
2019-05-01T13:37:52.121Z,7.35
2019-05-01T13:40:36.802Z,8.30
2019-05-01T13:43:21.861Z,9.28
2019-05-01T13:46:07.086Z,8.55
2019-05-01T13:48:52.040Z,10.30
2019-05-01T13:51:38.344Z,9.90
2019-05-01T13:54:23.326Z,9.95
2019-05-01T13:57:08.811Z,12.60
2019-05-01T13:59:54.118Z,11.28
2019-05-01T14:02:39.202Z,9.53
2019-05-01T14:05:24.503Z,8.90
2019-05-01T14:08:09.250Z,10.25
2019-05-01T14:10:54.109Z,10.63
2019-05-01T14:13:38.984Z,10.23
2019-05-01T14:16:24.183Z,10.10
2019-05-01T14:19:09.050Z,7.40
2019-05-01T14:21:55.921Z,7.95
2019-05-01T14:24:48.553Z,10.38
2019-05-01T14:27:33.903Z,6.92
2019-05-01T14:30:18.661Z,8.18
2019-05-01T14:33:03.653Z,9.90
2019-05-01T14:35:48.382Z,7.60
2019-05-01T14:38:33.388Z,12.75
2019-05-01T14:41:18.179Z,10.13
2019-05-01T14:44:04.523Z,7.97
2019-05-01T14:46:49.757Z,7.45
2019-05-01T14:49:34.453Z,7.78
2019-05-01T14:52:19.268Z,8.08
2019-05-01T14:55:05.255Z,9.83
2019-05-01T14:57:50.436Z,8.35
2019-05-01T15:00:35.574Z,6.92
2019-05-01T15:03:20.558Z,8.18
2019-05-01T15:06:05.397Z,9.25
2019-05-01T15:08:50.116Z,8.05
2019-05-01T15:11:35.236Z,10.53
2019-05-01T15:14:22.273Z,10.43
2019-05-01T15:17:15.112Z,11.10
2019-05-01T15:20:01.830Z,10.08
2019-05-01T15:22:47.398Z,9.00
2019-05-01T15:25:32.615Z,8.03
2019-05-01T15:28:17.592Z,8.95
2019-05-01T15:31:02.587Z,7.90
2019-05-01T15:33:47.673Z,9.65
2019-05-01T15:36:32.488Z,8.95
2019-05-01T15:39:19.405Z,8.43
2019-05-01T15:42:23.029Z,10.08
2019-05-01T15:45:07.916Z,10.45
2019-05-01T15:47:53.025Z,8.23
2019-05-01T15:50:38.032Z,10.58
2019-05-01T15:53:22.839Z,10.98
2019-05-01T15:56:07.670Z,7.25
2019-05-01T15:58:52.617Z,9.93
2019-05-01T16:01:37.579Z,6.30
2019-05-01T16:04:23.428Z,10.95
2019-05-01T16:07:09.903Z,8.80
2019-05-01T16:09:55.013Z,9.38
2019-05-01T16:12:41.604Z,10.13
2019-05-01T16:15:28.759Z,12.13
2019-05-01T16:18:13.963Z,10.28
2019-05-01T16:20:58.816Z,9.68
2019-05-01T16:23:43.675Z,6.35
2019-05-01T16:26:28.715Z,6.97
2019-05-01T16:29:13.941Z,7.03
2019-05-01T16:31:58.925Z,6.75
2019-05-01T16:34:44.194Z,5.95
2019-05-01T16:37:29.284Z,9.23
2019-05-01T16:40:28.274Z,9.80
2019-05-01T16:43:13.733Z,9.00
2019-05-01T16:45:59.710Z,8.20
2019-05-01T16:48:45.239Z,7.00
2019-05-01T16:51:30.083Z,7.85
2019-05-01T16:54:14.942Z,7.35
2019-05-01T16:56:59.589Z,7.05
2019-05-01T16:59:44.379Z,9.58
2019-05-01T17:02:49.774Z,7.85
2019-05-01T17:05:39.534Z,10.75
2019-05-01T17:08:36.739Z,7.25
2019-05-01T17:11:24.004Z,8.95
2019-05-01T17:14:11.224Z,7.78
2019-05-01T17:16:56.226Z,9.38
2019-05-01T17:19:41.389Z,7.42
2019-05-01T17:22:26.137Z,6.62
2019-05-01T17:25:11.228Z,6.58
2019-05-01T17:27:56.369Z,8.48
2019-05-01T17:30:44.464Z,9.25
2019-05-01T17:33:29.583Z,13.03
2019-05-01T17:36:14.682Z,12.33
2019-05-01T17:39:00.241Z,10.32
2019-05-01T17:41:45.543Z,9.43
2019-05-01T17:44:30.725Z,8.38
2019-05-01T17:47:17.876Z,10.15
2019-05-01T17:50:03.559Z,8.78
2019-05-01T17:52:48.979Z,12.03
2019-05-01T17:55:33.612Z,8.05
2019-05-01T17:58:18.930Z,7.90
2019-05-01T18:01:22.689Z,8.93
2019-05-01T18:04:18.868Z,9.18
2019-05-01T18:07:03.970Z,8.20
2019-05-01T18:09:51.377Z,8.33
2019-05-01T18:12:36.908Z,6.58
2019-05-01T18:15:22.119Z,8.50
2019-05-01T18:18:10.712Z,10.45
2019-05-01T18:20:54.554Z,8.75
2019-05-01T18:23:59.952Z,8.68
2019-05-01T18:26:47.025Z,9.08
2019-05-01T18:29:46.020Z,8.73
2019-05-01T18:32:36.494Z,10.13
2019-05-01T18:35:21.687Z,9.90
2019-05-01T18:38:20.530Z,10.95
2019-05-01T18:41:07.716Z,8.95
2019-05-01T18:43:52.853Z,12.53
2019-05-01T18:46:39.098Z,8.98
2019-05-01T18:49:24.330Z,11.45
2019-05-01T18:52:09.345Z,8.65
2019-05-01T18:54:54.173Z,17.57
2019-05-01T18:57:39.235Z,12.03
2019-05-01T19:00:24.147Z,8.10
2019-05-01T19:03:09.422Z,8.85
2019-05-01T19:05:54.181Z,12.03
2019-05-01T19:08:39.361Z,15.55
2019-05-01T19:11:24.315Z,11.45
2019-05-01T19:14:10.041Z,15.38
2019-05-01T19:16:55.409Z,10.00
2019-05-01T19:19:40.201Z,12.60
2019-05-01T19:22:25.156Z,9.60
2019-05-01T19:25:15.933Z,9.50
2019-05-01T19:27:57.760Z,11.65
2019-05-01T19:30:43.386Z,16.15
2019-05-01T19:33:28.839Z,14.05
2019-05-01T19:36:14.258Z,11.75
2019-05-01T19:38:59.260Z,9.13
2019-05-01T19:41:49.166Z,8.75
2019-05-01T19:44:31.520Z,9.75
2019-05-01T19:47:16.887Z,9.90
2019-05-01T19:50:09.518Z,11.60
2019-05-01T19:52:54.782Z,10.00
2019-05-01T19:55:44.728Z,9.35
2019-05-01T19:58:27.183Z,8.73
2019-05-01T20:01:12.010Z,11.85
2019-05-01T20:03:56.989Z,12.20
2019-05-01T20:06:42.087Z,9.03
2019-05-01T20:09:27.260Z,14.53
2019-05-01T20:12:11.951Z,11.00
2019-05-01T20:14:57.442Z,10.13
2019-05-01T20:17:42.202Z,8.78
2019-05-01T20:20:27.333Z,10.40
2019-05-01T20:23:12.732Z,9.65
2019-05-01T20:25:57.536Z,10.38
2019-05-01T20:28:42.688Z,9.60
2019-05-01T20:31:28.305Z,11.68
2019-05-01T20:34:17.281Z,9.03
2019-05-01T20:37:02.373Z,10.00
2019-05-01T20:39:47.450Z,10.23
2019-05-01T20:42:32.257Z,10.25
2019-05-01T20:45:18.452Z,10.40
2019-05-01T20:48:04.728Z,10.90
2019-05-01T20:50:49.990Z,11.48
2019-05-01T20:53:34.874Z,11.22
2019-05-01T20:56:21.910Z,9.88
2019-05-01T20:59:06.854Z,8.85
2019-05-01T21:01:52.308Z,8.60
2019-05-01T21:04:56.024Z,9.28
2019-05-01T21:07:42.629Z,8.18
2019-05-01T21:10:50.754Z,12.63
2019-05-01T21:13:33.957Z,11.20
2019-05-01T21:16:18.857Z,7.67
2019-05-01T21:19:03.830Z,10.40
2019-05-01T21:21:48.653Z,10.10
2019-05-01T21:24:34.110Z,9.25
2019-05-01T21:27:19.294Z,10.20
2019-05-01T21:30:05.756Z,9.38
2019-05-01T21:32:51.545Z,10.20
2019-05-01T21:35:36.378Z,9.80
2019-05-01T21:38:21.382Z,9.90
2019-05-01T21:41:05.954Z,9.18
2019-05-01T21:43:52.656Z,10.90
2019-05-01T21:46:39.167Z,12.65
2019-05-01T21:49:24.547Z,11.95
2019-05-01T21:52:09.338Z,9.95
2019-05-01T21:54:55.278Z,13.32
2019-05-01T21:57:40.962Z,9.73
2019-05-01T22:00:27.870Z,11.40
2019-05-01T22:03:16.605Z,9.43
2019-05-01T22:06:01.337Z,10.50
2019-05-01T22:08:46.147Z,10.63
2019-05-01T22:11:33.090Z,9.60
2019-05-01T22:14:26.265Z,9.98
2019-05-01T22:17:32.205Z,9.63
2019-05-01T22:20:18.749Z,10.82
2019-05-01T22:23:06.073Z,11.38
2019-05-01T22:25:55.729Z,10.88
2019-05-01T22:28:44.194Z,8.80
2019-05-01T22:31:37.014Z,9.33
2019-05-01T22:34:26.360Z,10.78
2019-05-01T22:37:11.081Z,10.40
2019-05-01T22:40:00.544Z,8.50
2019-05-01T22:42:45.736Z,10.38
2019-05-01T22:45:30.693Z,10.20
2019-05-01T22:48:15.456Z,11.80
2019-05-01T22:51:02.173Z,11.33
2019-05-01T22:53:49.105Z,11.55
2019-05-01T22:56:34.357Z,9.90
2019-05-01T22:59:19.234Z,11.03
2019-05-01T23:02:18.354Z,14.53
2019-05-01T23:05:06.332Z,13.00
2019-05-01T23:07:51.300Z,10.00
2019-05-01T23:10:36.298Z,11.15
2019-05-01T23:13:21.470Z,10.50
2019-05-01T23:16:06.611Z,10.72
2019-05-01T23:18:52.232Z,10.78
2019-05-01T23:21:38.376Z,12.45
2019-05-01T23:24:23.161Z,9.65
2019-05-01T23:27:07.928Z,12.43
2019-05-01T23:29:52.898Z,13.25
2019-05-01T23:32:37.934Z,9.65
2019-05-01T23:35:22.609Z,10.90
2019-05-01T23:38:07.512Z,11.10
2019-05-01T23:40:52.962Z,16.07
2019-05-01T23:43:39.129Z,13.70
2019-05-01T23:46:23.986Z,12.18
2019-05-01T23:49:08.966Z,11.78
2019-05-01T23:51:53.893Z,17.17
2019-05-01T23:54:58.546Z,11.85
2019-05-01T23:57:43.416Z,13.22
